Time;durP1;ratioP1;P1;durP2;ratioP2;P2;SDS_P1;SDS_P2;PMS_P1;PMS_P2;Temp;Humidity;BMP_temperature;BMP_pressure;BME280_temperature;BME280_humidity;BME280_pressure;Samples;Min_cycle;Max_cycle;Signal;HPM_P1;HPM_P2
2022/03/12 00:01:25;;;;;;;11.47;6.70;;;5.80;62.00;;;;;;5033543;28;20571;-59
2022/03/12 00:03:54;;;;;;;9.00;6.10;;;5.70;62.00;;;;;;5033252;28;20259;-58
2022/03/12 00:06:21;;;;;;;8.60;6.30;;;5.60;62.00;;;;;;5032526;28;20293;-59
2022/03/12 00:08:50;;;;;;;9.70;6.03;;;5.60;62.00;;;;;;5033380;28;20830;-59
2022/03/12 00:11:20;;;;;;;7.27;5.57;;;5.60;62.00;;;;;;5033369;28;20210;-59
2022/03/12 00:13:48;;;;;;;9.90;6.00;;;5.60;62.10;;;;;;5033037;28;20600;-59
2022/03/12 00:16:22;;;;;;;7.77;5.87;;;5.50;62.30;;;;;;5033447;28;20252;-60
2022/03/12 00:18:52;;;;;;;9.53;6.17;;;5.40;62.60;;;;;;5033644;28;20212;-58
2022/03/12 00:21:19;;;;;;;11.47;5.90;;;5.30;62.70;;;;;;5033404;28;20206;-58
2022/03/12 00:23:50;;;;;;;10.27;5.70;;;5.30;62.90;;;;;;5033172;28;20229;-61
2022/03/12 00:26:18;;;;;;;9.07;5.97;;;5.30;62.70;;;;;;5033290;28;20245;-59
2022/03/12 00:28:46;;;;;;;9.33;5.97;;;5.30;62.70;;;;;;5033089;28;20697;-59
2022/03/12 00:31:13;;;;;;;8.17;6.00;;;5.30;62.70;;;;;;5032967;28;20559;-60
2022/03/12 00:33:40;;;;;;;10.97;5.57;;;5.30;62.70;;;;;;5032548;28;20617;-59
2022/03/12 00:36:07;;;;;;;11.77;5.73;;;5.30;63.50;;;;;;5032744;28;20463;-60
2022/03/12 00:38:34;;;;;;;9.70;5.97;;;5.30;62.60;;;;;;5033049;28;20206;-59
2022/03/12 00:41:04;;;;;;;12.87;6.20;;;5.40;62.50;;;;;;5032573;28;20584;-59
2022/03/12 00:43:32;;;;;;;7.83;5.53;;;5.40;62.50;;;;;;5032573;28;20206;-58
2022/03/12 00:45:59;;;;;;;8.87;6.30;;;5.40;62.70;;;;;;5032264;28;20230;-59
2022/03/12 00:48:25;;;;;;;9.77;5.63;;;5.30;62.90;;;;;;5032766;28;20210;-59
2022/03/12 00:50:52;;;;;;;9.83;6.57;;;5.20;63.20;;;;;;5032438;28;20686;-59
2022/03/12 00:53:19;;;;;;;8.40;5.33;;;5.20;63.30;;;;;;5032552;28;20649;-58
2022/03/12 00:55:45;;;;;;;9.33;5.93;;;5.30;63.10;;;;;;5032495;28;20234;-59
2022/03/12 00:58:12;;;;;;;10.47;5.90;;;5.30;63.00;;;;;;5032497;28;20214;-61
2022/03/12 01:00:40;;;;;;;9.77;6.40;;;5.30;62.80;;;;;;5032322;28;20237;-59
2022/03/12 01:03:07;;;;;;;10.50;6.00;;;5.40;62.80;;;;;;5032427;28;20217;-60
2022/03/12 01:05:54;;;;;;;8.67;5.30;;;5.50;62.90;;;;;;5032239;28;20702;-59
2022/03/12 01:08:22;;;;;;;10.90;6.57;;;5.50;62.80;;;;;;5032729;28;20297;-61
2022/03/12 01:10:49;;;;;;;8.83;6.23;;;5.40;62.70;;;;;;5032408;28;20220;-59
2022/03/12 01:13:16;;;;;;;8.67;6.20;;;5.50;62.80;;;;;;5032063;28;20252;-60
2022/03/12 01:15:44;;;;;;;8.20;5.97;;;5.50;62.80;;;;;;5032403;28;20230;-60
2022/03/12 01:18:13;;;;;;;8.13;5.83;;;5.50;62.80;;;;;;5032298;28;20213;-60
2022/03/12 01:20:40;;;;;;;9.17;6.33;;;5.40;63.10;;;;;;5032206;28;20217;-59
2022/03/12 01:23:07;;;;;;;10.30;6.50;;;5.30;63.50;;;;;;5032481;28;20293;-60
2022/03/12 01:25:35;;;;;;;10.53;6.57;;;5.30;63.60;;;;;;5032079;28;20309;-59
2022/03/12 01:28:01;;;;;;;9.43;6.00;;;5.30;63.50;;;;;;5032604;28;20214;-59
2022/03/12 01:30:30;;;;;;;8.30;6.50;;;5.30;63.60;;;;;;5032428;28;20218;-58
2022/03/12 01:32:59;;;;;;;9.43;6.13;;;5.30;63.70;;;;;;5031807;28;20214;-58
2022/03/12 01:35:26;;;;;;;11.87;5.93;;;5.20;63.80;;;;;;5032242;28;20230;-57
2022/03/12 01:37:53;;;;;;;10.83;6.63;;;5.10;64.20;;;;;;5031988;28;20217;-58
2022/03/12 01:40:20;;;;;;;12.77;5.87;;;5.00;64.30;;;;;;5031900;28;20244;-58
2022/03/12 01:42:47;;;;;;;8.53;6.57;;;5.00;64.30;;;;;;5031959;28;20268;-58
2022/03/12 01:45:24;;;;;;;10.00;6.00;;;5.10;64.10;;;;;;5031958;28;20226;-57
2022/03/12 01:47:55;;;;;;;10.43;6.10;;;5.10;64.10;;;;;;5031860;28;20308;-58
2022/03/12 01:50:25;;;;;;;8.67;6.27;;;5.10;64.20;;;;;;5031839;28;20288;-58
2022/03/12 01:52:58;;;;;;;10.97;5.87;;;5.00;64.30;;;;;;5031411;28;20214;-57
2022/03/12 01:55:27;;;;;;;10.53;6.37;;;5.00;64.30;;;;;;5031911;28;20230;-57
2022/03/12 01:57:54;;;;;;;10.20;6.00;;;5.00;64.30;;;;;;5031907;28;20202;-57
2022/03/12 02:00:27;;;;;;;10.03;6.40;;;5.00;64.30;;;;;;5031571;28;20206;-58
2022/03/12 02:02:54;;;;;;;9.70;6.57;;;5.10;64.10;;;;;;5031452;28;20210;-57
2022/03/12 02:05:25;;;;;;;9.90;6.27;;;5.10;64.00;;;;;;5031512;28;20314;-58
2022/03/12 02:07:52;;;;;;;10.27;5.57;;;5.10;64.40;;;;;;5031746;28;20252;-58
2022/03/12 02:10:20;;;;;;;10.37;6.47;;;5.10;64.10;;;;;;5031724;28;20206;-58
2022/03/12 02:12:46;;;;;;;8.60;5.57;;;5.10;64.10;;;;;;5031677;28;20206;-58
2022/03/12 02:15:15;;;;;;;8.03;5.87;;;5.10;64.20;;;;;;5031552;28;20291;-58
2022/03/12 02:17:41;;;;;;;10.13;6.10;;;5.20;64.10;;;;;;5031497;28;20249;-58
2022/03/12 02:20:08;;;;;;;13.70;6.43;;;5.20;64.10;;;;;;5031756;28;20210;-58
2022/03/12 02:22:38;;;;;;;11.53;6.20;;;5.20;63.90;;;;;;5031471;28;20226;-57
2022/03/12 02:25:07;;;;;;;9.73;6.33;;;5.10;64.30;;;;;;5031433;28;20229;-57
2022/03/12 02:27:34;;;;;;;8.97;5.60;;;5.10;64.30;;;;;;5031812;28;20210;-58
2022/03/12 02:30:02;;;;;;;9.53;6.00;;;5.10;64.30;;;;;;5033596;28;20264;-57
2022/03/12 02:32:29;;;;;;;9.63;6.03;;;5.10;64.40;;;;;;5034776;28;20301;-58
2022/03/12 02:34:57;;;;;;;11.10;6.20;;;5.00;64.30;;;;;;5034963;28;20242;-58
2022/03/12 02:37:29;;;;;;;7.13;5.73;;;5.10;64.40;;;;;;5034909;28;20202;-57
2022/03/12 02:39:57;;;;;;;10.33;6.40;;;5.10;64.40;;;;;;5035285;28;20248;-58
2022/03/12 02:42:25;;;;;;;10.63;5.90;;;5.20;64.20;;;;;;5035100;28;20229;-58
2022/03/12 02:44:54;;;;;;;10.93;5.87;;;5.10;64.30;;;;;;5035037;28;20230;-58
2022/03/12 02:47:22;;;;;;;10.47;6.03;;;5.10;64.30;;;;;;5034954;28;20297;-57
2022/03/12 02:49:52;;;;;;;10.73;6.10;;;5.10;64.40;;;;;;5035037;28;20304;-57
2022/03/12 02:52:21;;;;;;;8.07;5.70;;;5.10;64.40;;;;;;5034550;28;20326;-58
2022/03/12 02:54:49;;;;;;;9.20;5.97;;;5.20;64.40;;;;;;5034446;28;20230;-58
2022/03/12 02:57:17;;;;;;;11.13;6.20;;;5.20;64.40;;;;;;5034544;28;20646;-57
2022/03/12 02:59:48;;;;;;;9.33;6.20;;;5.20;64.40;;;;;;5034914;28;20206;-58
2022/03/12 03:02:15;;;;;;;8.87;6.27;;;5.20;64.40;;;;;;5034508;28;20242;-58
2022/03/12 03:04:42;;;;;;;8.70;6.03;;;5.10;64.40;;;;;;5034570;28;20226;-58
2022/03/12 03:07:10;;;;;;;9.63;6.37;;;5.20;64.40;;;;;;5034405;28;20280;-58
2022/03/12 03:09:37;;;;;;;10.23;6.50;;;5.20;64.40;;;;;;5034327;28;20260;-59
2022/03/12 03:12:07;;;;;;;8.37;6.03;;;5.30;64.00;;;;;;5034154;28;20260;-58
2022/03/12 03:14:33;;;;;;;7.37;5.90;;;5.20;63.90;;;;;;5034202;28;20236;-58
2022/03/12 03:17:04;;;;;;;9.40;6.27;;;5.30;64.00;;;;;;5034339;28;20287;-58
2022/03/12 03:19:32;;;;;;;11.20;5.77;;;5.30;64.00;;;;;;5034722;28;20213;-58
2022/03/12 03:21:59;;;;;;;8.77;6.30;;;5.20;64.00;;;;;;5034502;28;20464;-58
2022/03/12 03:24:27;;;;;;;9.03;6.10;;;5.10;64.50;;;;;;5034184;28;20233;-58
2022/03/12 03:26:56;;;;;;;10.57;6.27;;;5.00;64.50;;;;;;5034083;28;20686;-58
2022/03/12 03:29:24;;;;;;;9.80;5.93;;;5.00;64.80;;;;;;5034354;28;20213;-58
2022/03/12 03:31:51;;;;;;;8.13;6.53;;;5.00;64.90;;;;;;5034419;28;20573;-58
2022/03/12 03:34:20;;;;;;;9.03;6.47;;;4.90;65.10;;;;;;5033788;28;20615;-58
2022/03/12 03:36:48;;;;;;;9.97;6.50;;;5.00;65.10;;;;;;5033622;28;20226;-58
2022/03/12 03:39:15;;;;;;;9.27;6.60;;;5.10;64.90;;;;;;5033613;28;20214;-59
2022/03/12 03:41:42;;;;;;;8.40;5.63;;;5.00;65.00;;;;;;5033965;28;20239;-58
2022/03/12 03:44:09;;;;;;;8.37;5.60;;;5.00;65.20;;;;;;5033411;28;20230;-58
2022/03/12 03:46:36;;;;;;;10.70;6.03;;;4.90;65.30;;;;;;5033692;28;20627;-58
2022/03/12 03:49:04;;;;;;;10.00;5.90;;;4.90;65.40;;;;;;5033641;28;20702;-58
2022/03/12 03:51:37;;;;;;;9.33;6.27;;;5.00;65.40;;;;;;5033907;28;20202;-58
2022/03/12 03:54:08;;;;;;;7.37;5.97;;;5.00;65.40;;;;;;5033567;28;20325;-58
2022/03/12 03:56:35;;;;;;;10.13;5.90;;;4.90;65.40;;;;;;5033758;28;20573;-58
2022/03/12 03:59:02;;;;;;;9.50;5.77;;;4.90;65.40;;;;;;5033475;28;20252;-58
2022/03/12 04:01:29;;;;;;;9.27;6.57;;;4.90;65.40;;;;;;5033437;28;20232;-58
2022/03/12 04:03:57;;;;;;;8.70;5.50;;;4.90;65.40;;;;;;5033039;28;20209;-58
2022/03/12 04:06:25;;;;;;;8.37;6.13;;;4.90;65.40;;;;;;5033463;28;20301;-57
2022/03/12 04:08:54;;;;;;;9.57;6.03;;;4.90;65.40;;;;;;5033393;28;20301;-58
2022/03/12 04:11:22;;;;;;;11.40;5.57;;;4.80;65.70;;;;;;5033567;28;20213;-58
2022/03/12 04:13:51;;;;;;;8.80;6.07;;;4.80;65.80;;;;;;5032865;28;20254;-58
2022/03/12 04:16:19;;;;;;;8.67;6.30;;;4.80;65.70;;;;;;5033035;28;20325;-58
2022/03/12 04:18:48;;;;;;;6.43;5.50;;;4.90;66.50;;;;;;5033089;28;20210;-58
2022/03/12 04:21:16;;;;;;;8.87;5.90;;;4.80;65.60;;;;;;5033461;28;20206;-58
2022/03/12 04:23:44;;;;;;;14.00;6.27;;;4.70;65.90;;;;;;5032836;28;20555;-58
2022/03/12 04:26:12;;;;;;;9.53;5.73;;;4.70;66.10;;;;;;5032834;28;20202;-58
2022/03/12 04:28:40;;;;;;;10.87;6.23;;;4.70;66.10;;;;;;5032885;28;20206;-58
2022/03/12 04:31:08;;;;;;;11.30;6.30;;;4.70;66.30;;;;;;5032975;28;20268;-58
2022/03/12 04:33:38;;;;;;;10.20;6.10;;;4.70;66.30;;;;;;5032760;28;20206;-57
2022/03/12 04:36:06;;;;;;;8.03;6.00;;;4.70;66.40;;;;;;5032464;28;20226;-57
2022/03/12 04:38:33;;;;;;;8.43;6.03;;;4.70;66.30;;;;;;5032743;28;20592;-57
2022/03/12 04:40:59;;;;;;;8.83;5.63;;;4.60;66.40;;;;;;5032603;28;20577;-58
2022/03/12 04:43:30;;;;;;;8.37;6.30;;;4.60;66.40;;;;;;5032375;28;20207;-57
2022/03/12 04:45:59;;;;;;;9.67;5.97;;;4.70;66.50;;;;;;5032585;28;20254;-57
2022/03/12 04:48:26;;;;;;;7.07;5.60;;;4.60;66.70;;;;;;5032480;28;20662;-57
2022/03/12 04:50:54;;;;;;;10.33;6.07;;;4.50;66.60;;;;;;5032646;28;20245;-57
2022/03/12 04:53:22;;;;;;;10.43;6.53;;;4.40;66.60;;;;;;5031921;28;20309;-57
2022/03/12 04:55:49;;;;;;;8.40;6.30;;;4.40;66.60;;;;;;5032590;28;20236;-58
2022/03/12 04:58:17;;;;;;;8.77;6.20;;;4.40;66.50;;;;;;5032510;28;20689;-57
2022/03/12 05:00:46;;;;;;;9.40;5.37;;;4.40;66.70;;;;;;5032577;28;20202;-57
2022/03/12 05:03:14;;;;;;;8.30;6.10;;;4.30;66.60;;;;;;5032459;28;20210;-65
2022/03/12 05:05:43;;;;;;;11.83;6.23;;;4.30;67.60;;;;;;5032321;28;20234;-58
2022/03/12 05:08:13;;;;;;;12.03;6.00;;;4.30;66.90;;;;;;5032259;28;20202;-57
2022/03/12 05:10:40;;;;;;;10.60;6.27;;;4.20;66.90;;;;;;5032136;28;20210;-58
2022/03/12 05:13:07;;;;;;;11.53;6.10;;;4.20;67.00;;;;;;5032168;28;20210;-58
2022/03/12 05:15:38;;;;;;;9.77;6.20;;;4.20;67.20;;;;;;5032165;28;20233;-57
2022/03/12 05:18:07;;;;;;;10.90;6.60;;;4.20;67.50;;;;;;5032271;28;20202;-58
2022/03/12 05:20:36;;;;;;;12.90;6.47;;;4.00;67.70;;;;;;5031936;28;20210;-58
2022/03/12 05:23:06;;;;;;;9.70;5.83;;;4.00;68.00;;;;;;5031860;28;20244;-58
2022/03/12 05:25:33;;;;;;;8.97;6.47;;;4.10;68.10;;;;;;5032103;28;20241;-57
2022/03/12 05:28:00;;;;;;;9.43;6.57;;;4.20;67.90;;;;;;5032352;28;20202;-58
2022/03/12 05:30:29;;;;;;;11.90;6.00;;;4.20;67.80;;;;;;5032222;28;20209;-57
2022/03/12 05:32:55;;;;;;;11.80;6.07;;;4.30;67.80;;;;;;5031891;28;20723;-57
2022/03/12 05:35:23;;;;;;;9.03;5.87;;;4.40;67.60;;;;;;5032068;28;20312;-57
2022/03/12 05:37:52;;;;;;;9.87;6.63;;;4.50;67.50;;;;;;5032018;28;20764;-58
2022/03/12 05:40:21;;;;;;;10.63;5.93;;;4.50;67.10;;;;;;5032336;28;20206;-58
2022/03/12 05:42:48;;;;;;;8.17;6.20;;;4.50;67.10;;;;;;5031792;28;20684;-58
2022/03/12 05:45:18;;;;;;;8.67;5.87;;;4.40;67.60;;;;;;5032339;28;20226;-57
2022/03/12 05:47:46;;;;;;;8.70;6.00;;;4.40;67.50;;;;;;5032390;28;20198;-58
2022/03/12 05:50:14;;;;;;;8.83;6.17;;;4.40;67.40;;;;;;5031901;28;20229;-58
2022/03/12 05:52:47;;;;;;;10.10;6.70;;;4.50;67.30;;;;;;5032245;28;20666;-57
2022/03/12 05:55:15;;;;;;;7.87;5.90;;;4.60;66.80;;;;;;5032847;28;20233;-58
2022/03/12 05:57:42;;;;;;;11.13;6.60;;;4.80;66.70;;;;;;5031898;28;20710;-57
2022/03/12 06:00:11;;;;;;;8.17;5.93;;;4.80;66.50;;;;;;5032153;28;20257;-58
2022/03/12 06:02:46;;;;;;;10.43;6.83;;;4.70;66.70;;;;;;5031767;28;20661;-58
2022/03/12 06:05:14;;;;;;;9.70;6.50;;;4.70;66.80;;;;;;5035059;28;20229;-58
2022/03/12 06:07:45;;;;;;;10.77;6.27;;;4.70;66.80;;;;;;5035792;28;20685;-58
2022/03/12 06:10:12;;;;;;;11.63;6.27;;;4.70;66.80;;;;;;5036061;28;20213;-58
2022/03/12 06:12:43;;;;;;;9.60;6.20;;;4.70;66.80;;;;;;5035660;28;20650;-58
2022/03/12 06:15:16;;;;;;;9.57;7.00;;;4.70;67.30;;;;;;5035489;28;20280;-58
2022/03/12 06:17:43;;;;;;;12.80;6.93;;;4.60;67.60;;;;;;5035639;28;20288;-58
2022/03/12 06:20:11;;;;;;;11.20;6.70;;;4.70;67.50;;;;;;5035291;28;20690;-58
2022/03/12 06:22:38;;;;;;;8.67;6.70;;;4.80;67.50;;;;;;5035261;28;20677;-58
2022/03/12 06:25:08;;;;;;;10.70;6.60;;;4.80;67.40;;;;;;5035279;28;20226;-58
2022/03/12 06:27:35;;;;;;;12.13;7.43;;;4.90;67.30;;;;;;5035178;28;20198;-57
2022/03/12 06:30:02;;;;;;;10.27;7.40;;;4.90;67.10;;;;;;5035123;28;20202;-57
2022/03/12 06:32:30;;;;;;;8.63;6.77;;;5.10;67.20;;;;;;5035419;28;20292;-58
2022/03/12 06:34:57;;;;;;;9.90;6.07;;;5.20;66.60;;;;;;5035858;28;20845;-59
2022/03/12 06:37:24;;;;;;;14.20;6.80;;;5.30;66.20;;;;;;5035432;28;20232;-58
2022/03/12 06:39:51;;;;;;;12.47;6.77;;;5.40;66.20;;;;;;5035227;28;20222;-58
2022/03/12 06:42:23;;;;;;;11.97;7.23;;;5.60;66.00;;;;;;5034965;28;20262;-58
2022/03/12 06:44:54;;;;;;;11.80;7.43;;;6.00;65.20;;;;;;5034894;28;20222;-58
2022/03/12 06:47:22;;;;;;;11.90;7.40;;;6.50;64.30;;;;;;5035078;28;20650;-58
2022/03/12 06:49:48;;;;;;;11.57;7.43;;;7.20;63.30;;;;;;5034772;28;20219;-59
2022/03/12 06:52:15;;;;;;;10.30;7.23;;;7.70;61.30;;;;;;5034781;28;20211;-58
2022/03/12 06:54:42;;;;;;;7.97;6.37;;;8.30;59.90;;;;;;5034269;28;20261;-58
2022/03/12 06:57:09;;;;;;;11.40;6.57;;;8.70;59.30;;;;;;5034593;28;20230;-58
2022/03/12 06:59:37;;;;;;;12.67;6.53;;;9.20;58.20;;;;;;5034764;28;20209;-58
2022/03/12 07:02:04;;;;;;;9.90;6.30;;;9.80;57.20;;;;;;5034654;28;20202;-58
2022/03/12 07:04:31;;;;;;;10.37;6.40;;;10.30;55.40;;;;;;5034244;28;20226;-58
2022/03/12 07:06:57;;;;;;;13.47;6.83;;;10.70;54.90;;;;;;5034395;28;20202;-58
2022/03/12 07:09:24;;;;;;;9.57;6.57;;;11.00;53.90;;;;;;5034227;28;20709;-57
2022/03/12 07:11:54;;;;;;;11.10;7.80;;;11.50;53.30;;;;;;5034064;28;20629;-58
2022/03/12 07:14:22;;;;;;;9.63;7.60;;;11.70;52.60;;;;;;5034085;28;20226;-58
2022/03/12 07:16:50;;;;;;;10.30;7.47;;;11.80;52.70;;;;;;5033984;28;20225;-58
2022/03/12 07:19:16;;;;;;;9.87;7.20;;;11.80;52.80;;;;;;5034198;28;20268;-58
2022/03/12 07:21:43;;;;;;;10.07;7.30;;;11.80;52.00;;;;;;5034112;28;20589;-59
2022/03/12 07:24:10;;;;;;;8.90;6.90;;;11.80;51.80;;;;;;5034162;28;20234;-58
2022/03/12 07:26:38;;;;;;;9.30;6.77;;;11.60;52.20;;;;;;5034315;28;20256;-58
2022/03/12 07:29:04;;;;;;;8.97;6.80;;;11.50;52.40;;;;;;5034318;28;20255;-59
2022/03/12 07:31:32;;;;;;;9.77;6.77;;;11.50;52.40;;;;;;5034252;28;20302;-58
2022/03/12 07:34:00;;;;;;;8.97;6.70;;;11.30;52.80;;;;;;5033749;28;20206;-58
2022/03/12 07:36:27;;;;;;;10.25;6.85;;;11.30;53.00;;;;;;5034259;28;20445;-60
2022/03/12 07:38:54;;;;;;;11.53;8.07;;;11.40;53.00;;;;;;5045233;28;20210;-60
2022/03/12 07:41:21;;;;;;;9.53;6.90;;;11.80;52.70;;;;;;5053732;28;20208;-59
2022/03/12 07:43:47;;;;;;;9.90;6.70;;;12.20;52.30;;;;;;5053509;28;20669;-58
2022/03/12 07:46:14;;;;;;;8.83;7.37;;;12.70;51.80;;;;;;5053709;28;20589;-58
2022/03/12 07:48:41;;;;;;;11.27;7.13;;;13.10;51.20;;;;;;5053454;28;20201;-66
2022/03/12 07:51:09;;;;;;;11.03;7.20;;;13.30;50.30;;;;;;5053361;28;20212;-61
2022/03/12 07:53:36;;;;;;;8.77;6.47;;;12.90;50.50;;;;;;5053443;28;20212;-61
2022/03/12 07:56:03;;;;;;;9.70;6.70;;;12.30;51.40;;;;;;5053643;28;20229;-59
2022/03/12 07:58:30;;;;;;;12.67;6.53;;;11.60;52.20;;;;;;5053463;28;20229;-59
2022/03/12 08:00:58;;;;;;;10.50;6.50;;;11.10;53.00;;;;;;5053428;28;20210;-59
2022/03/12 08:03:25;;;;;;;9.13;6.43;;;10.60;53.70;;;;;;5053152;28;20674;-59
2022/03/12 08:05:52;;;;;;;9.40;6.67;;;10.10;54.60;;;;;;5053185;28;20225;-59
2022/03/12 08:08:21;;;;;;;10.73;7.00;;;9.80;56.00;;;;;;5053019;28;20205;-59
2022/03/12 08:13:32;;;;;;;12.30;7.37;;;9.50;57.30;;;;;;5053025;28;20672;-58
2022/03/12 08:15:59;;;;;;;11.20;7.13;;;9.40;57.60;;;;;;5053054;28;20229;-58
2022/03/12 08:18:26;;;;;;;8.77;6.93;;;9.50;57.60;;;;;;5053185;28;20294;-58
2022/03/12 08:20:53;;;;;;;8.63;6.40;;;9.40;57.30;;;;;;5053441;28;20305;-58
2022/03/12 08:23:22;;;;;;;11.83;8.00;;;9.30;57.90;;;;;;5052593;28;20206;-59
2022/03/12 08:25:48;;;;;;;9.50;7.10;;;9.10;58.00;;;;;;5052738;28;20618;-58
2022/03/12 08:28:17;;;;;;;11.33;7.23;;;8.90;58.40;;;;;;5052153;28;20205;-58
2022/03/12 08:30:46;;;;;;;11.60;6.87;;;8.90;58.70;;;;;;5052810;28;20209;-59
2022/03/12 08:33:13;;;;;;;11.10;7.47;;;8.80;58.90;;;;;;5052752;28;20212;-59
2022/03/12 08:35:40;;;;;;;10.63;6.83;;;8.70;59.20;;;;;;5052655;28;20233;-60
2022/03/12 08:38:07;;;;;;;9.30;7.00;;;8.70;59.10;;;;;;5052502;28;20225;-58
2022/03/12 08:40:36;;;;;;;10.90;7.97;;;8.70;59.20;;;;;;5052858;28;20232;-59
2022/03/12 08:43:03;;;;;;;9.43;6.97;;;8.80;59.40;;;;;;5052220;28;20371;-58
2022/03/12 08:45:30;;;;;;;13.50;7.10;;;8.90;59.40;;;;;;5052420;28;20573;-58
2022/03/12 08:47:58;;;;;;;10.03;6.87;;;8.90;59.40;;;;;;5052433;28;20669;-61
2022/03/12 08:50:25;;;;;;;10.97;7.37;;;8.80;59.30;;;;;;5052377;28;20244;-59
2022/03/12 08:52:53;;;;;;;11.87;7.23;;;8.90;59.70;;;;;;5052168;28;20304;-58
2022/03/12 08:55:19;;;;;;;10.67;7.17;;;9.10;59.60;;;;;;5052055;28;20229;-59
2022/03/12 08:57:47;;;;;;;11.47;7.40;;;9.30;59.70;;;;;;5051823;28;20226;-58
2022/03/12 09:00:16;;;;;;;11.27;7.87;;;9.60;59.10;;;;;;5052244;28;20205;-58
2022/03/12 09:02:44;;;;;;;12.00;7.87;;;9.80;58.90;;;;;;5052109;28;20245;-59
2022/03/12 09:05:13;;;;;;;9.80;7.40;;;10.00;57.70;;;;;;5052167;28;20236;-60
2022/03/12 09:07:40;;;;;;;9.40;7.40;;;10.20;57.80;;;;;;5052240;28;20225;-59
2022/03/12 09:10:10;;;;;;;14.47;7.70;;;10.40;57.90;;;;;;5051998;28;20209;-59
2022/03/12 09:12:37;;;;;;;10.23;7.47;;;10.50;57.60;;;;;;5051987;28;20205;-59
2022/03/12 09:15:06;;;;;;;11.43;7.83;;;10.50;57.50;;;;;;5051645;28;20279;-61
2022/03/12 09:17:33;;;;;;;9.57;7.60;;;10.30;58.30;;;;;;5052206;28;20228;-59
2022/03/12 09:20:00;;;;;;;9.57;7.33;;;10.30;58.20;;;;;;5052103;28;20255;-59
2022/03/12 09:22:26;;;;;;;9.30;6.80;;;10.40;58.60;;;;;;5051387;28;20202;-61
2022/03/12 09:24:53;;;;;;;11.20;7.93;;;10.60;58.30;;;;;;5051629;28;20748;-59
2022/03/12 09:27:20;;;;;;;12.47;7.73;;;10.80;58.10;;;;;;5051919;28;20254;-60
2022/03/12 09:29:47;;;;;;;10.13;8.20;;;10.90;58.10;;;;;;5052083;28;20202;-59
2022/03/12 09:32:16;;;;;;;15.83;8.53;;;11.20;57.90;;;;;;5052083;28;20209;-60
2022/03/12 09:34:43;;;;;;;10.30;8.20;;;11.40;57.90;;;;;;5051837;28;20229;-59
2022/03/12 09:37:10;;;;;;;13.03;8.67;;;11.80;57.40;;;;;;5051721;28;20217;-60
2022/03/12 09:39:37;;;;;;;11.33;8.60;;;12.00;56.90;;;;;;5055507;28;20243;-60
2022/03/12 09:42:05;;;;;;;13.50;8.43;;;12.00;56.50;;;;;;5056200;28;20205;-60
2022/03/12 09:44:31;;;;;;;11.60;8.83;;;12.00;56.90;;;;;;5055988;28;20347;-58
2022/03/12 09:46:58;;;;;;;16.37;9.07;;;12.00;57.00;;;;;;5056422;28;20213;-60
2022/03/12 09:49:27;;;;;;;13.77;8.53;;;12.20;57.10;;;;;;5056123;28;20564;-59
2022/03/12 09:51:53;;;;;;;13.20;9.40;;;12.40;56.60;;;;;;5055782;28;20210;-61
2022/03/12 09:54:20;;;;;;;12.20;8.90;;;12.60;56.60;;;;;;5055920;28;20229;-60
2022/03/12 09:56:47;;;;;;;13.97;9.13;;;12.60;56.70;;;;;;5056028;28;20212;-59
2022/03/12 09:59:14;;;;;;;12.13;9.67;;;12.70;56.70;;;;;;5055637;28;20230;-60
2022/03/12 10:01:40;;;;;;;13.33;8.50;;;12.80;56.50;;;;;;5055979;28;20269;-61
2022/03/12 10:04:07;;;;;;;14.43;9.17;;;12.90;56.50;;;;;;5055665;28;20221;-61
2022/03/12 10:06:35;;;;;;;11.30;8.50;;;13.10;56.20;;;;;;5055372;28;20205;-59
2022/03/12 10:09:04;;;;;;;13.77;9.07;;;13.20;56.10;;;;;;5055356;28;20206;-60
2022/03/12 10:11:31;;;;;;;14.37;9.07;;;13.20;56.30;;;;;;5055592;28;20202;-57
2022/03/12 10:13:57;;;;;;;12.47;8.87;;;13.30;56.40;;;;;;5055084;28;20232;-57
2022/03/12 10:16:25;;;;;;;14.37;8.90;;;13.30;56.10;;;;;;5055088;28;20209;-58
2022/03/12 10:18:52;;;;;;;15.00;8.93;;;13.40;56.40;;;;;;5054820;28;20267;-58
2022/03/12 10:21:19;;;;;;;10.60;9.00;;;13.30;56.40;;;;;;5055036;28;20681;-57
2022/03/12 10:23:47;;;;;;;10.23;8.50;;;13.40;56.50;;;;;;5055080;28;20216;-59
2022/03/12 10:26:13;;;;;;;13.07;8.70;;;13.50;56.70;;;;;;5055515;28;20259;-59
2022/03/12 10:28:40;;;;;;;12.73;9.03;;;13.70;56.80;;;;;;5055672;28;20205;-59
2022/03/12 10:31:09;;;;;;;13.50;8.77;;;13.90;56.70;;;;;;5055141;28;20648;-57
2022/03/12 10:33:36;;;;;;;12.30;8.43;;;14.00;56.60;;;;;;5054739;28;20209;-58
2022/03/12 10:36:12;;;;;;;15.90;9.13;;;14.00;57.10;;;;;;5054947;28;20786;-57
2022/03/12 10:38:40;;;;;;;14.47;8.53;;;14.10;57.20;;;;;;5054892;28;20701;-58
2022/03/12 10:41:09;;;;;;;13.30;9.20;;;14.30;57.40;;;;;;5055040;28;20206;-58
2022/03/12 10:43:45;;;;;;;11.97;9.53;;;14.50;56.60;;;;;;5054981;28;20591;-57
2022/03/12 10:46:20;;;;;;;14.97;9.37;;;14.60;57.00;;;;;;5055025;28;20205;-63
2022/03/12 10:48:48;;;;;;;13.07;9.40;;;14.70;56.80;;;;;;5055359;28;20247;-61
2022/03/12 10:51:17;;;;;;;13.13;8.87;;;14.80;56.60;;;;;;5053951;28;20205;-62
2022/03/12 10:53:45;;;;;;;15.73;9.40;;;14.80;56.80;;;;;;5054425;28;20666;-60
2022/03/12 10:56:14;;;;;;;13.03;9.27;;;14.80;57.30;;;;;;5054604;28;20209;-61
2022/03/12 10:58:41;;;;;;;16.17;9.77;;;14.90;58.10;;;;;;5054271;28;20222;-62
2022/03/12 11:01:08;;;;;;;16.07;10.13;;;14.80;58.60;;;;;;5054165;28;20209;-60
2022/03/12 11:03:37;;;;;;;12.67;8.90;;;14.90;58.60;;;;;;5053995;28;20673;-61
2022/03/12 11:06:07;;;;;;;11.90;8.90;;;15.00;59.70;;;;;;5054219;28;20257;-62
2022/03/12 11:08:34;;;;;;;11.93;8.37;;;15.00;60.80;;;;;;5053998;28;20206;-60
2022/03/12 11:11:06;;;;;;;10.93;8.60;;;15.00;61.50;;;;;;5053985;28;20201;-60
2022/03/12 11:13:40;;;;;;;11.17;9.07;;;15.00;61.60;;;;;;5054322;28;20210;-61
2022/03/12 11:16:12;;;;;;;10.30;7.97;;;15.10;61.50;;;;;;5054171;28;20649;-63
2022/03/12 11:18:40;;;;;;;13.13;9.03;;;15.00;62.20;;;;;;5054442;28;20248;-61
2022/03/12 11:21:07;;;;;;;11.73;8.60;;;15.00;62.50;;;;;;5054054;28;20724;-58
2022/03/12 11:23:33;;;;;;;12.50;8.80;;;15.00;62.20;;;;;;5053608;28;20214;-59
2022/03/12 11:26:06;;;;;;;13.43;8.97;;;15.10;62.60;;;;;;5054168;28;20236;-59
2022/03/12 11:28:36;;;;;;;11.13;8.37;;;15.30;63.50;;;;;;5054178;28;20296;-60
2022/03/12 11:31:10;;;;;;;8.67;6.83;;;15.40;63.40;;;;;;5053977;28;20271;-63
2022/03/12 11:33:38;;;;;;;12.10;6.80;;;15.60;64.90;;;;;;5053705;28;20962;-57
2022/03/12 11:36:09;;;;;;;9.33;7.00;;;15.50;66.00;;;;;;5053669;28;20256;-55
2022/03/12 11:38:37;;;;;;;8.03;6.23;;;15.50;66.80;;;;;;5054337;28;20611;-57
2022/03/12 11:41:06;;;;;;;10.73;6.63;;;15.40;66.70;;;;;;5054256;28;20628;-58
2022/03/12 11:43:40;;;;;;;8.40;6.33;;;15.60;66.70;;;;;;5053592;28;20674;-58
2022/03/12 11:46:09;;;;;;;7.43;6.10;;;15.50;66.80;;;;;;5053337;28;20736;-58
2022/03/12 11:48:38;;;;;;;8.13;6.33;;;15.50;67.90;;;;;;5053324;28;20677;-57
2022/03/12 11:51:18;;;;;;;7.43;5.93;;;15.50;67.40;;;;;;5053708;28;20206;-57
2022/03/12 11:53:46;;;;;;;10.13;7.53;;;15.50;67.50;;;;;;5053369;28;20296;-57
2022/03/12 11:56:14;;;;;;;10.90;7.70;;;15.50;67.20;;;;;;5053924;28;20225;-57
2022/03/12 11:58:43;;;;;;;11.47;6.77;;;15.50;66.80;;;;;;5053758;28;20697;-57
2022/03/12 12:01:11;;;;;;;8.33;6.03;;;15.50;67.50;;;;;;5052853;28;20631;-57
2022/03/12 12:03:37;;;;;;;10.33;6.33;;;15.70;68.10;;;;;;5052804;28;20233;-57
2022/03/12 12:06:04;;;;;;;9.57;6.57;;;15.70;67.60;;;;;;5053183;28;20226;-57
2022/03/12 12:08:31;;;;;;;7.60;6.07;;;15.90;67.70;;;;;;5053447;28;20203;-57
2022/03/12 12:11:01;;;;;;;6.83;6.00;;;15.90;68.40;;;;;;5053212;28;20205;-57
2022/03/12 12:13:29;;;;;;;6.80;5.10;;;16.10;67.40;;;;;;5052876;28;20201;-57
2022/03/12 12:15:58;;;;;;;7.63;5.70;;;16.20;67.50;;;;;;5052758;28;20249;-57
2022/03/12 12:18:25;;;;;;;6.43;4.90;;;16.20;67.50;;;;;;5053212;28;20221;-57
2022/03/12 12:20:51;;;;;;;8.43;6.00;;;16.10;67.40;;;;;;5053195;28;20208;-57
2022/03/12 12:23:20;;;;;;;8.50;5.17;;;16.00;67.70;;;;;;5052983;28;20206;-57
2022/03/12 12:25:47;;;;;;;7.70;5.20;;;16.10;68.00;;;;;;5052859;28;20647;-57
2022/03/12 12:28:16;;;;;;;6.83;5.57;;;16.10;67.30;;;;;;5052780;28;20657;-57
2022/03/12 12:30:44;;;;;;;6.93;5.63;;;16.30;67.00;;;;;;5052825;28;20594;-58
2022/03/12 12:33:22;;;;;;;7.13;5.63;;;16.40;66.60;;;;;;5052146;28;20695;-58
2022/03/12 12:35:50;;;;;;;7.90;5.63;;;16.40;67.30;;;;;;5052763;28;20350;-57
2022/03/12 12:38:20;;;;;;;7.83;5.70;;;16.50;66.00;;;;;;5052568;28;20581;-57
2022/03/12 12:40:49;;;;;;;7.10;5.80;;;16.50;65.60;;;;;;5052699;28;20707;-57
2022/03/12 12:43:18;;;;;;;7.30;5.90;;;16.60;65.10;;;;;;5052546;28;20315;-57
2022/03/12 12:46:06;;;;;;;8.43;6.00;;;16.60;64.90;;;;;;5052613;28;20229;-58
2022/03/12 12:48:38;;;;;;;9.20;6.70;;;16.60;65.30;;;;;;5052540;28;20205;-57
2022/03/12 12:51:07;;;;;;;6.20;5.60;;;16.50;64.90;;;;;;5052557;28;20260;-57
2022/03/12 12:53:36;;;;;;;8.38;6.05;;;16.50;64.40;;;;;;5052122;28;20264;-57
2022/03/12 12:56:24;;;;;;;6.10;5.47;;;16.60;64.60;;;;;;5052708;28;20229;-57